Weather at Dease Lake Airport

Public forecast

Using degrees Celsius for public forecast. Weather courtesy of forecast.io.

Current aviation weather report (METAR) for Dease Lake Airport

Retrieved 2021/04/20 18:00 UTC (38 minutes ago):

CYDL 201800Z AUTO 22011KT 9SM CLR 08/M04 A3023 RMK SLP256

Aviation forecast (TAF) for Dease Lake Airport

Retrieved 2021/04/20 18:00 UTC (38 minutes ago):

TAF CYDL 201738Z 2018/2024 24006KT P6SM FEW100 SCT240 RMK FCST BASED ON AUTO OBS NXT FCST WILL BE ISSUED AT 211245Z